Terminal Aerodrome Forecast
Issued by NWS Twin Cities, MN

Home | Current Version | Previous Version | Text Only | Print | Product List | Glossary Off
Versions: 1 2 3 4 5 6 7 8 9 10 11 12 13 14

000
FTUS43 KMPX 262300
TAFSTC
TAF
KSTC 262331Z 2700/2724 26012G18KT P6SM SCT050
     FM270200 27010KT P6SM SCT080
     FM270900 29010KT P6SM BKN025 OVC040
     FM271400 32014G24KT P6SM -SHRA SCT015 OVC025
     FM272000 34013G20KT P6SM VCSH SCT025 BKN040=

USA.gov is the U.S. government's official web portal to all federal, state and local government web resources and services.